sensor_id;sensor_type;location;lat;lon;timestamp;P1;durP1;ratioP1;P2;durP2;ratioP2
42602;SDS011;28233;55.748;48.752;2023-08-06T00:00:14;16.23;;;10.13;;
42602;SDS011;28233;55.748;48.752;2023-08-06T00:02:17;13.82;;;8.98;;
42602;SDS011;28233;55.748;48.752;2023-08-06T00:04:20;16.48;;;10.63;;
42602;SDS011;28233;55.748;48.752;2023-08-06T00:06:23;16.98;;;10.80;;
42602;SDS011;28233;55.748;48.752;2023-08-06T00:08:26;16.73;;;11.80;;
42602;SDS011;28233;55.748;48.752;2023-08-06T00:10:29;14.57;;;11.90;;
42602;SDS011;28233;55.748;48.752;2023-08-06T00:12:32;16.95;;;11.57;;
42602;SDS011;28233;55.748;48.752;2023-08-06T00:14:35;17.50;;;11.98;;
42602;SDS011;28233;55.748;48.752;2023-08-06T00:16:37;16.25;;;11.20;;
42602;SDS011;28233;55.748;48.752;2023-08-06T00:18:40;16.98;;;11.45;;
42602;SDS011;28233;55.748;48.752;2023-08-06T00:20:43;19.52;;;12.93;;
42602;SDS011;28233;55.748;48.752;2023-08-06T00:22:46;16.05;;;12.43;;
42602;SDS011;28233;55.748;48.752;2023-08-06T00:24:49;17.85;;;12.85;;
42602;SDS011;28233;55.748;48.752;2023-08-06T00:26:51;15.65;;;11.57;;
42602;SDS011;28233;55.748;48.752;2023-08-06T00:28:54;16.40;;;12.73;;
42602;SDS011;28233;55.748;48.752;2023-08-06T00:30:57;20.42;;;11.95;;
42602;SDS011;28233;55.748;48.752;2023-08-06T00:33:00;15.32;;;11.10;;
42602;SDS011;28233;55.748;48.752;2023-08-06T00:35:03;17.10;;;12.10;;
42602;SDS011;28233;55.748;48.752;2023-08-06T00:37:07;16.30;;;9.73;;
42602;SDS011;28233;55.748;48.752;2023-08-06T00:39:09;13.73;;;9.85;;
42602;SDS011;28233;55.748;48.752;2023-08-06T00:41:13;11.13;;;8.85;;
42602;SDS011;28233;55.748;48.752;2023-08-06T00:43:16;15.20;;;8.82;;
42602;SDS011;28233;55.748;48.752;2023-08-06T00:45:19;10.88;;;9.50;;
42602;SDS011;28233;55.748;48.752;2023-08-06T00:47:22;12.00;;;8.60;;
42602;SDS011;28233;55.748;48.752;2023-08-06T00:49:25;11.75;;;8.88;;
42602;SDS011;28233;55.748;48.752;2023-08-06T00:51:28;11.50;;;9.07;;
42602;SDS011;28233;55.748;48.752;2023-08-06T00:53:31;13.30;;;10.70;;
42602;SDS011;28233;55.748;48.752;2023-08-06T00:55:34;16.90;;;11.35;;
42602;SDS011;28233;55.748;48.752;2023-08-06T00:57:37;17.30;;;12.50;;
42602;SDS011;28233;55.748;48.752;2023-08-06T00:59:39;15.05;;;12.05;;
42602;SDS011;28233;55.748;48.752;2023-08-06T01:01:43;17.27;;;12.05;;
42602;SDS011;28233;55.748;48.752;2023-08-06T01:03:47;15.95;;;11.90;;
42602;SDS011;28233;55.748;48.752;2023-08-06T01:05:50;15.60;;;10.43;;
42602;SDS011;28233;55.748;48.752;2023-08-06T01:08:12;19.33;;;11.82;;
42602;SDS011;28233;55.748;48.752;2023-08-06T01:10:51;21.42;;;11.18;;
42602;SDS011;28233;55.748;48.752;2023-08-06T01:15:18;17.30;;;10.68;;
42602;SDS011;28233;55.748;48.752;2023-08-06T01:17:38;18.13;;;10.73;;
42602;SDS011;28233;55.748;48.752;2023-08-06T01:19:43;17.27;;;11.15;;
42602;SDS011;28233;55.748;48.752;2023-08-06T01:21:45;19.80;;;13.45;;
42602;SDS011;28233;55.748;48.752;2023-08-06T01:23:48;17.30;;;12.68;;
42602;SDS011;28233;55.748;48.752;2023-08-06T01:28:27;19.88;;;14.27;;
42602;SDS011;28233;55.748;48.752;2023-08-06T01:30:47;19.83;;;13.88;;
42602;SDS011;28233;55.748;48.752;2023-08-06T01:32:53;22.00;;;15.82;;
42602;SDS011;28233;55.748;48.752;2023-08-06T01:35:03;17.50;;;13.95;;
42602;SDS011;28233;55.748;48.752;2023-08-06T01:37:06;21.67;;;13.50;;
42602;SDS011;28233;55.748;48.752;2023-08-06T01:39:10;16.35;;;12.73;;
42602;SDS011;28233;55.748;48.752;2023-08-06T01:41:12;19.27;;;12.77;;
42602;SDS011;28233;55.748;48.752;2023-08-06T01:43:15;17.30;;;11.85;;
42602;SDS011;28233;55.748;48.752;2023-08-06T01:45:18;14.00;;;10.32;;
42602;SDS011;28233;55.748;48.752;2023-08-06T01:47:21;14.85;;;10.57;;
42602;SDS011;28233;55.748;48.752;2023-08-06T01:49:23;15.32;;;11.88;;
42602;SDS011;28233;55.748;48.752;2023-08-06T01:51:26;17.48;;;11.25;;
42602;SDS011;28233;55.748;48.752;2023-08-06T01:53:29;16.42;;;12.25;;
42602;SDS011;28233;55.748;48.752;2023-08-06T01:55:32;16.73;;;12.23;;
42602;SDS011;28233;55.748;48.752;2023-08-06T01:57:34;18.50;;;14.55;;
42602;SDS011;28233;55.748;48.752;2023-08-06T01:59:37;19.58;;;12.77;;
42602;SDS011;28233;55.748;48.752;2023-08-06T02:01:40;17.00;;;12.65;;
42602;SDS011;28233;55.748;48.752;2023-08-06T02:03:43;21.45;;;13.00;;
42602;SDS011;28233;55.748;48.752;2023-08-06T02:05:46;19.05;;;12.93;;
42602;SDS011;28233;55.748;48.752;2023-08-06T02:07:48;13.07;;;11.20;;
42602;SDS011;28233;55.748;48.752;2023-08-06T02:09:51;17.48;;;11.88;;
42602;SDS011;28233;55.748;48.752;2023-08-06T02:11:54;14.77;;;10.55;;
42602;SDS011;28233;55.748;48.752;2023-08-06T02:13:57;14.05;;;10.63;;
42602;SDS011;28233;55.748;48.752;2023-08-06T02:15:59;23.25;;;11.73;;
42602;SDS011;28233;55.748;48.752;2023-08-06T02:18:03;15.40;;;11.18;;
42602;SDS011;28233;55.748;48.752;2023-08-06T02:20:06;18.90;;;11.38;;
42602;SDS011;28233;55.748;48.752;2023-08-06T02:22:09;14.18;;;9.73;;
42602;SDS011;28233;55.748;48.752;2023-08-06T02:24:12;14.40;;;9.02;;
42602;SDS011;28233;55.748;48.752;2023-08-06T02:26:14;13.75;;;8.23;;
42602;SDS011;28233;55.748;48.752;2023-08-06T02:28:17;12.02;;;9.00;;
42602;SDS011;28233;55.748;48.752;2023-08-06T02:30:20;13.68;;;8.65;;
42602;SDS011;28233;55.748;48.752;2023-08-06T02:32:22;12.07;;;7.45;;
42602;SDS011;28233;55.748;48.752;2023-08-06T02:34:25;10.32;;;7.43;;
42602;SDS011;28233;55.748;48.752;2023-08-06T02:36:28;9.60;;;7.53;;
42602;SDS011;28233;55.748;48.752;2023-08-06T02:38:32;10.00;;;7.22;;
42602;SDS011;28233;55.748;48.752;2023-08-06T02:40:35;8.52;;;7.00;;
42602;SDS011;28233;55.748;48.752;2023-08-06T02:42:38;9.77;;;6.97;;
42602;SDS011;28233;55.748;48.752;2023-08-06T02:44:40;9.05;;;6.97;;
42602;SDS011;28233;55.748;48.752;2023-08-06T02:46:44;10.00;;;7.53;;
42602;SDS011;28233;55.748;48.752;2023-08-06T02:48:47;10.55;;;7.95;;
42602;SDS011;28233;55.748;48.752;2023-08-06T02:50:50;9.20;;;7.80;;
42602;SDS011;28233;55.748;48.752;2023-08-06T02:52:52;18.13;;;8.32;;
42602;SDS011;28233;55.748;48.752;2023-08-06T02:54:55;12.45;;;8.55;;
42602;SDS011;28233;55.748;48.752;2023-08-06T02:56:58;11.68;;;7.88;;
42602;SDS011;28233;55.748;48.752;2023-08-06T02:59:01;10.63;;;7.43;;
42602;SDS011;28233;55.748;48.752;2023-08-06T03:01:05;10.15;;;7.72;;
42602;SDS011;28233;55.748;48.752;2023-08-06T03:03:09;10.52;;;7.75;;
42602;SDS011;28233;55.748;48.752;2023-08-06T03:05:12;10.10;;;7.25;;
42602;SDS011;28233;55.748;48.752;2023-08-06T03:07:15;9.57;;;7.38;;
42602;SDS011;28233;55.748;48.752;2023-08-06T03:09:18;9.85;;;7.50;;
42602;SDS011;28233;55.748;48.752;2023-08-06T03:11:21;10.40;;;7.50;;
42602;SDS011;28233;55.748;48.752;2023-08-06T03:13:24;10.57;;;8.60;;
42602;SDS011;28233;55.748;48.752;2023-08-06T03:15:26;11.98;;;8.18;;
42602;SDS011;28233;55.748;48.752;2023-08-06T03:17:29;11.48;;;8.43;;
42602;SDS011;28233;55.748;48.752;2023-08-06T03:19:32;11.27;;;8.68;;
42602;SDS011;28233;55.748;48.752;2023-08-06T03:21:35;12.18;;;8.13;;
42602;SDS011;28233;55.748;48.752;2023-08-06T03:23:37;13.38;;;8.43;;
42602;SDS011;28233;55.748;48.752;2023-08-06T03:25:40;12.13;;;8.05;;
42602;SDS011;28233;55.748;48.752;2023-08-06T03:27:44;13.88;;;7.10;;
42602;SDS011;28233;55.748;48.752;2023-08-06T03:29:50;9.90;;;6.55;;
42602;SDS011;28233;55.748;48.752;2023-08-06T03:31:53;11.07;;;6.70;;
42602;SDS011;28233;55.748;48.752;2023-08-06T03:33:55;10.52;;;7.80;;
42602;SDS011;28233;55.748;48.752;2023-08-06T03:35:58;13.00;;;7.88;;
42602;SDS011;28233;55.748;48.752;2023-08-06T03:38:01;10.98;;;6.82;;
42602;SDS011;28233;55.748;48.752;2023-08-06T03:40:04;11.77;;;7.72;;
42602;SDS011;28233;55.748;48.752;2023-08-06T03:42:07;11.15;;;7.68;;
42602;SDS011;28233;55.748;48.752;2023-08-06T03:44:10;11.38;;;8.05;;
42602;SDS011;28233;55.748;48.752;2023-08-06T03:46:13;10.85;;;7.68;;
42602;SDS011;28233;55.748;48.752;2023-08-06T03:48:16;9.07;;;7.40;;
42602;SDS011;28233;55.748;48.752;2023-08-06T03:50:18;15.40;;;7.05;;
42602;SDS011;28233;55.748;48.752;2023-08-06T03:52:21;9.63;;;7.05;;
42602;SDS011;28233;55.748;48.752;2023-08-06T03:54:24;15.77;;;7.32;;
42602;SDS011;28233;55.748;48.752;2023-08-06T03:56:27;11.38;;;6.68;;
42602;SDS011;28233;55.748;48.752;2023-08-06T03:58:30;10.65;;;5.72;;
42602;SDS011;28233;55.748;48.752;2023-08-06T04:00:33;11.02;;;6.82;;
42602;SDS011;28233;55.748;48.752;2023-08-06T04:02:36;11.88;;;6.95;;
42602;SDS011;28233;55.748;48.752;2023-08-06T04:04:39;10.27;;;5.72;;
42602;SDS011;28233;55.748;48.752;2023-08-06T04:06:41;7.78;;;6.20;;
42602;SDS011;28233;55.748;48.752;2023-08-06T04:08:44;9.02;;;5.43;;
42602;SDS011;28233;55.748;48.752;2023-08-06T04:10:53;7.15;;;5.40;;
42602;SDS011;28233;55.748;48.752;2023-08-06T04:12:56;5.50;;;3.60;;
42602;SDS011;28233;55.748;48.752;2023-08-06T04:14:59;7.28;;;3.72;;
42602;SDS011;28233;55.748;48.752;2023-08-06T04:17:07;5.55;;;4.00;;
42602;SDS011;28233;55.748;48.752;2023-08-06T04:19:10;6.97;;;4.15;;
42602;SDS011;28233;55.748;48.752;2023-08-06T04:21:13;10.65;;;4.30;;
42602;SDS011;28233;55.748;48.752;2023-08-06T04:23:16;6.35;;;4.07;;
42602;SDS011;28233;55.748;48.752;2023-08-06T04:25:18;10.57;;;3.85;;
42602;SDS011;28233;55.748;48.752;2023-08-06T04:27:23;5.45;;;3.35;;
42602;SDS011;28233;55.748;48.752;2023-08-06T04:29:25;7.57;;;3.30;;
42602;SDS011;28233;55.748;48.752;2023-08-06T04:31:28;6.03;;;3.22;;
42602;SDS011;28233;55.748;48.752;2023-08-06T04:33:32;4.20;;;2.95;;
42602;SDS011;28233;55.748;48.752;2023-08-06T04:35:34;8.02;;;2.92;;
42602;SDS011;28233;55.748;48.752;2023-08-06T04:37:37;8.32;;;3.25;;
42602;SDS011;28233;55.748;48.752;2023-08-06T04:39:40;6.40;;;3.50;;
42602;SDS011;28233;55.748;48.752;2023-08-06T04:41:43;4.75;;;3.72;;
42602;SDS011;28233;55.748;48.752;2023-08-06T04:43:46;3.72;;;3.10;;
42602;SDS011;28233;55.748;48.752;2023-08-06T04:45:49;6.53;;;3.30;;
42602;SDS011;28233;55.748;48.752;2023-08-06T04:47:53;5.57;;;4.28;;
42602;SDS011;28233;55.748;48.752;2023-08-06T04:49:56;5.50;;;3.17;;
42602;SDS011;28233;55.748;48.752;2023-08-06T04:51:59;3.30;;;2.42;;
42602;SDS011;28233;55.748;48.752;2023-08-06T04:54:01;5.05;;;2.92;;
42602;SDS011;28233;55.748;48.752;2023-08-06T04:56:04;5.57;;;2.00;;
42602;SDS011;28233;55.748;48.752;2023-08-06T04:58:08;3.53;;;2.80;;
42602;SDS011;28233;55.748;48.752;2023-08-06T05:00:11;2.58;;;2.13;;
42602;SDS011;28233;55.748;48.752;2023-08-06T05:02:14;4.60;;;2.85;;
42602;SDS011;28233;55.748;48.752;2023-08-06T05:04:17;4.30;;;3.05;;
42602;SDS011;28233;55.748;48.752;2023-08-06T05:06:20;6.55;;;3.47;;
42602;SDS011;28233;55.748;48.752;2023-08-06T05:08:23;4.38;;;2.78;;
42602;SDS011;28233;55.748;48.752;2023-08-06T05:10:25;8.27;;;3.03;;
42602;SDS011;28233;55.748;48.752;2023-08-06T05:12:29;4.88;;;3.20;;
42602;SDS011;28233;55.748;48.752;2023-08-06T05:14:31;5.55;;;3.65;;
42602;SDS011;28233;55.748;48.752;2023-08-06T05:16:34;4.80;;;3.28;;
42602;SDS011;28233;55.748;48.752;2023-08-06T05:18:37;4.80;;;3.17;;
42602;SDS011;28233;55.748;48.752;2023-08-06T05:20:41;4.00;;;2.97;;
42602;SDS011;28233;55.748;48.752;2023-08-06T05:22:45;6.90;;;3.08;;
42602;SDS011;28233;55.748;48.752;2023-08-06T05:24:48;4.90;;;3.60;;
42602;SDS011;28233;55.748;48.752;2023-08-06T05:26:50;7.47;;;3.33;;
42602;SDS011;28233;55.748;48.752;2023-08-06T05:28:53;5.20;;;3.45;;
42602;SDS011;28233;55.748;48.752;2023-08-06T05:30:56;3.95;;;2.80;;
42602;SDS011;28233;55.748;48.752;2023-08-06T05:32:59;5.82;;;3.00;;
42602;SDS011;28233;55.748;48.752;2023-08-06T05:35:02;9.43;;;3.05;;
42602;SDS011;28233;55.748;48.752;2023-08-06T05:37:06;4.18;;;2.40;;
42602;SDS011;28233;55.748;48.752;2023-08-06T05:39:09;3.60;;;2.63;;
42602;SDS011;28233;55.748;48.752;2023-08-06T05:41:11;5.68;;;3.55;;
42602;SDS011;28233;55.748;48.752;2023-08-06T05:43:14;4.30;;;2.90;;
42602;SDS011;28233;55.748;48.752;2023-08-06T05:45:17;4.95;;;3.10;;
42602;SDS011;28233;55.748;48.752;2023-08-06T05:47:21;7.05;;;2.90;;
42602;SDS011;28233;55.748;48.752;2023-08-06T05:49:24;2.72;;;2.42;;
42602;SDS011;28233;55.748;48.752;2023-08-06T05:51:28;3.22;;;2.65;;
42602;SDS011;28233;55.748;48.752;2023-08-06T05:53:31;4.32;;;3.30;;
42602;SDS011;28233;55.748;48.752;2023-08-06T05:55:34;4.32;;;3.28;;
42602;SDS011;28233;55.748;48.752;2023-08-06T05:57:37;3.85;;;3.05;;
42602;SDS011;28233;55.748;48.752;2023-08-06T05:59:40;6.45;;;2.58;;
42602;SDS011;28233;55.748;48.752;2023-08-06T06:01:43;4.60;;;2.65;;
42602;SDS011;28233;55.748;48.752;2023-08-06T06:03:46;4.50;;;2.38;;
42602;SDS011;28233;55.748;48.752;2023-08-06T06:05:49;3.72;;;2.17;;
42602;SDS011;28233;55.748;48.752;2023-08-06T06:07:52;6.50;;;2.95;;
42602;SDS011;28233;55.748;48.752;2023-08-06T06:09:54;6.03;;;3.20;;
42602;SDS011;28233;55.748;48.752;2023-08-06T06:11:57;5.72;;;3.05;;
42602;SDS011;28233;55.748;48.752;2023-08-06T06:14:00;5.60;;;2.65;;
42602;SDS011;28233;55.748;48.752;2023-08-06T06:16:03;4.43;;;2.60;;
42602;SDS011;28233;55.748;48.752;2023-08-06T06:18:07;5.18;;;2.75;;
42602;SDS011;28233;55.748;48.752;2023-08-06T06:20:10;5.40;;;3.42;;
42602;SDS011;28233;55.748;48.752;2023-08-06T06:22:13;4.72;;;2.53;;
42602;SDS011;28233;55.748;48.752;2023-08-06T06:24:16;3.30;;;2.22;;
42602;SDS011;28233;55.748;48.752;2023-08-06T06:26:19;4.88;;;2.10;;
42602;SDS011;28233;55.748;48.752;2023-08-06T06:28:22;4.10;;;2.20;;
42602;SDS011;28233;55.748;48.752;2023-08-06T06:30:25;6.47;;;2.08;;
42602;SDS011;28233;55.748;48.752;2023-08-06T06:32:27;3.78;;;2.22;;
42602;SDS011;28233;55.748;48.752;2023-08-06T06:34:30;4.75;;;2.15;;
42602;SDS011;28233;55.748;48.752;2023-08-06T06:36:33;4.63;;;2.40;;
42602;SDS011;28233;55.748;48.752;2023-08-06T06:38:36;2.20;;;1.65;;
42602;SDS011;28233;55.748;48.752;2023-08-06T06:40:39;3.00;;;2.45;;
42602;SDS011;28233;55.748;48.752;2023-08-06T06:42:42;4.35;;;2.38;;
42602;SDS011;28233;55.748;48.752;2023-08-06T06:44:44;5.65;;;2.05;;
42602;SDS011;28233;55.748;48.752;2023-08-06T06:46:47;4.25;;;1.83;;
42602;SDS011;28233;55.748;48.752;2023-08-06T06:48:50;4.82;;;1.83;;
42602;SDS011;28233;55.748;48.752;2023-08-06T06:50:53;4.70;;;1.77;;
42602;SDS011;28233;55.748;48.752;2023-08-06T06:52:56;2.15;;;1.95;;
42602;SDS011;28233;55.748;48.752;2023-08-06T06:54:58;3.70;;;2.13;;
42602;SDS011;28233;55.748;48.752;2023-08-06T06:57:01;7.72;;;1.13;;
42602;SDS011;28233;55.748;48.752;2023-08-06T06:59:07;8.57;;;1.23;;
42602;SDS011;28233;55.748;48.752;2023-08-06T07:01:10;1.85;;;1.65;;
42602;SDS011;28233;55.748;48.752;2023-08-06T07:03:17;2.38;;;1.83;;
42602;SDS011;28233;55.748;48.752;2023-08-06T07:05:20;3.40;;;1.58;;
42602;SDS011;28233;55.748;48.752;2023-08-06T07:07:23;4.55;;;2.17;;
42602;SDS011;28233;55.748;48.752;2023-08-06T07:09:26;7.20;;;1.63;;
42602;SDS011;28233;55.748;48.752;2023-08-06T07:11:28;1.83;;;1.08;;
42602;SDS011;28233;55.748;48.752;2023-08-06T07:13:31;3.17;;;1.42;;
42602;SDS011;28233;55.748;48.752;2023-08-06T07:15:35;1.80;;;1.02;;
42602;SDS011;28233;55.748;48.752;2023-08-06T07:17:37;4.32;;;1.40;;
42602;SDS011;28233;55.748;48.752;2023-08-06T07:19:40;2.40;;;1.20;;
42602;SDS011;28233;55.748;48.752;2023-08-06T07:21:43;3.60;;;2.75;;
42602;SDS011;28233;55.748;48.752;2023-08-06T07:23:46;2.13;;;0.95;;
42602;SDS011;28233;55.748;48.752;2023-08-06T07:25:49;1.88;;;0.93;;
42602;SDS011;28233;55.748;48.752;2023-08-06T07:27:52;5.30;;;0.85;;
42602;SDS011;28233;55.748;48.752;2023-08-06T07:29:55;2.17;;;0.85;;
42602;SDS011;28233;55.748;48.752;2023-08-06T07:31:57;2.03;;;1.13;;
42602;SDS011;28233;55.748;48.752;2023-08-06T07:34:00;3.20;;;1.20;;
42602;SDS011;28233;55.748;48.752;2023-08-06T07:36:13;1.90;;;0.77;;
42602;SDS011;28233;55.748;48.752;2023-08-06T07:38:16;5.32;;;1.27;;
42602;SDS011;28233;55.748;48.752;2023-08-06T07:40:19;3.42;;;1.20;;
42602;SDS011;28233;55.748;48.752;2023-08-06T07:42:22;1.15;;;0.85;;
42602;SDS011;28233;55.748;48.752;2023-08-06T07:44:25;2.25;;;1.15;;
42602;SDS011;28233;55.748;48.752;2023-08-06T07:46:28;5.05;;;1.08;;
42602;SDS011;28233;55.748;48.752;2023-08-06T07:48:31;3.42;;;1.30;;
42602;SDS011;28233;55.748;48.752;2023-08-06T07:50:34;3.70;;;1.30;;
42602;SDS011;28233;55.748;48.752;2023-08-06T07:52:37;1.90;;;0.95;;
42602;SDS011;28233;55.748;48.752;2023-08-06T07:54:40;2.50;;;1.15;;
42602;SDS011;28233;55.748;48.752;2023-08-06T07:56:43;3.75;;;0.90;;
42602;SDS011;28233;55.748;48.752;2023-08-06T07:58:46;2.08;;;1.05;;
42602;SDS011;28233;55.748;48.752;2023-08-06T08:00:49;1.35;;;0.80;;
42602;SDS011;28233;55.748;48.752;2023-08-06T08:02:52;3.63;;;1.23;;
42602;SDS011;28233;55.748;48.752;2023-08-06T08:04:55;2.72;;;1.20;;
42602;SDS011;28233;55.748;48.752;2023-08-06T08:06:58;5.03;;;1.45;;
42602;SDS011;28233;55.748;48.752;2023-08-06T08:09:01;3.08;;;1.20;;
42602;SDS011;28233;55.748;48.752;2023-08-06T08:11:05;1.90;;;1.10;;
42602;SDS011;28233;55.748;48.752;2023-08-06T08:13:08;2.47;;;0.80;;
42602;SDS011;28233;55.748;48.752;2023-08-06T08:15:12;1.33;;;0.88;;
42602;SDS011;28233;55.748;48.752;2023-08-06T08:17:15;2.78;;;1.33;;
42602;SDS011;28233;55.748;48.752;2023-08-06T08:19:24;4.43;;;1.25;;
42602;SDS011;28233;55.748;48.752;2023-08-06T08:21:31;2.17;;;1.00;;
42602;SDS011;28233;55.748;48.752;2023-08-06T08:23:38;1.17;;;0.70;;
42602;SDS011;28233;55.748;48.752;2023-08-06T08:25:42;2.03;;;1.08;;
42602;SDS011;28233;55.748;48.752;2023-08-06T08:27:48;2.38;;;1.33;;
42602;SDS011;28233;55.748;48.752;2023-08-06T08:29:52;6.60;;;1.42;;
42602;SDS011;28233;55.748;48.752;2023-08-06T08:31:55;1.48;;;1.00;;
42602;SDS011;28233;55.748;48.752;2023-08-06T08:33:59;1.90;;;0.75;;
42602;SDS011;28233;55.748;48.752;2023-08-06T08:36:03;1.00;;;0.70;;
42602;SDS011;28233;55.748;48.752;2023-08-06T08:38:06;6.13;;;1.40;;
42602;SDS011;28233;55.748;48.752;2023-08-06T08:40:09;2.63;;;0.73;;
42602;SDS011;28233;55.748;48.752;2023-08-06T08:42:13;1.55;;;1.25;;
42602;SDS011;28233;55.748;48.752;2023-08-06T08:44:17;2.42;;;0.88;;
42602;SDS011;28233;55.748;48.752;2023-08-06T08:46:20;1.42;;;1.00;;
42602;SDS011;28233;55.748;48.752;2023-08-06T08:48:24;1.20;;;0.70;;
42602;SDS011;28233;55.748;48.752;2023-08-06T08:50:27;1.63;;;1.02;;
42602;SDS011;28233;55.748;48.752;2023-08-06T08:52:31;5.05;;;1.20;;
42602;SDS011;28233;55.748;48.752;2023-08-06T08:54:37;3.17;;;0.90;;
42602;SDS011;28233;55.748;48.752;2023-08-06T08:56:41;6.32;;;1.30;;
42602;SDS011;28233;55.748;48.752;2023-08-06T08:58:44;4.95;;;0.73;;
42602;SDS011;28233;55.748;48.752;2023-08-06T09:00:47;12.77;;;1.27;;
42602;SDS011;28233;55.748;48.752;2023-08-06T09:02:50;1.73;;;1.00;;
42602;SDS011;28233;55.748;48.752;2023-08-06T09:04:55;2.85;;;0.60;;
42602;SDS011;28233;55.748;48.752;2023-08-06T09:07:04;1.02;;;0.82;;
42602;SDS011;28233;55.748;48.752;2023-08-06T09:09:13;1.90;;;0.80;;
42602;SDS011;28233;55.748;48.752;2023-08-06T09:11:20;1.67;;;0.90;;
42602;SDS011;28233;55.748;48.752;2023-08-06T09:13:23;3.35;;;1.08;;
42602;SDS011;28233;55.748;48.752;2023-08-06T09:15:26;3.80;;;1.13;;
42602;SDS011;28233;55.748;48.752;2023-08-06T09:17:30;1.50;;;0.90;;
42602;SDS011;28233;55.748;48.752;2023-08-06T09:19:33;1.52;;;0.80;;
42602;SDS011;28233;55.748;48.752;2023-08-06T09:21:37;1.67;;;1.00;;
42602;SDS011;28233;55.748;48.752;2023-08-06T09:23:41;2.42;;;0.90;;
42602;SDS011;28233;55.748;48.752;2023-08-06T09:25:44;3.08;;;0.93;;
42602;SDS011;28233;55.748;48.752;2023-08-06T09:27:46;1.58;;;0.75;;
42602;SDS011;28233;55.748;48.752;2023-08-06T09:29:50;1.58;;;0.73;;
42602;SDS011;28233;55.748;48.752;2023-08-06T09:31:53;3.50;;;0.98;;
42602;SDS011;28233;55.748;48.752;2023-08-06T09:33:57;1.38;;;0.90;;
42602;SDS011;28233;55.748;48.752;2023-08-06T09:36:09;2.47;;;1.00;;
42602;SDS011;28233;55.748;48.752;2023-08-06T09:38:12;1.63;;;0.80;;
42602;SDS011;28233;55.748;48.752;2023-08-06T09:40:49;4.15;;;1.02;;
42602;SDS011;28233;55.748;48.752;2023-08-06T09:42:44;2.95;;;0.90;;
42602;SDS011;28233;55.748;48.752;2023-08-06T09:44:47;4.63;;;1.15;;
42602;SDS011;28233;55.748;48.752;2023-08-06T09:46:51;2.75;;;1.23;;
42602;SDS011;28233;55.748;48.752;2023-08-06T09:48:55;2.75;;;1.08;;
42602;SDS011;28233;55.748;48.752;2023-08-06T09:50:58;2.60;;;0.90;;
42602;SDS011;28233;55.748;48.752;2023-08-06T09:53:01;2.20;;;0.80;;
42602;SDS011;28233;55.748;48.752;2023-08-06T09:55:06;3.00;;;0.85;;
42602;SDS011;28233;55.748;48.752;2023-08-06T09:57:09;3.72;;;0.93;;
42602;SDS011;28233;55.748;48.752;2023-08-06T09:59:14;1.75;;;0.80;;
42602;SDS011;28233;55.748;48.752;2023-08-06T10:01:18;1.92;;;0.80;;
42602;SDS011;28233;55.748;48.752;2023-08-06T10:03:22;4.30;;;0.95;;
42602;SDS011;28233;55.748;48.752;2023-08-06T10:05:26;6.47;;;1.10;;
42602;SDS011;28233;55.748;48.752;2023-08-06T10:07:35;2.95;;;1.10;;
42602;SDS011;28233;55.748;48.752;2023-08-06T10:09:41;2.08;;;0.82;;
42602;SDS011;28233;55.748;48.752;2023-08-06T10:11:44;3.13;;;0.82;;
42602;SDS011;28233;55.748;48.752;2023-08-06T10:14:03;1.60;;;0.75;;
42602;SDS011;28233;55.748;48.752;2023-08-06T10:17:07;5.07;;;0.80;;
42602;SDS011;28233;55.748;48.752;2023-08-06T10:20:03;4.37;;;0.83;;
42602;SDS011;28233;55.748;48.752;2023-08-06T10:23:07;2.22;;;1.10;;
42602;SDS011;28233;55.748;48.752;2023-08-06T10:25:48;2.70;;;0.85;;
42602;SDS011;28233;55.748;48.752;2023-08-06T10:28:42;1.75;;;0.77;;
42602;SDS011;28233;55.748;48.752;2023-08-06T10:30:45;3.33;;;0.90;;
42602;SDS011;28233;55.748;48.752;2023-08-06T10:32:50;1.95;;;0.90;;
42602;SDS011;28233;55.748;48.752;2023-08-06T10:34:54;4.93;;;0.70;;
42602;SDS011;28233;55.748;48.752;2023-08-06T10:37:01;1.30;;;0.60;;
42602;SDS011;28233;55.748;48.752;2023-08-06T10:39:04;1.00;;;0.57;;
42602;SDS011;28233;55.748;48.752;2023-08-06T10:41:31;3.33;;;0.65;;
42602;SDS011;28233;55.748;48.752;2023-08-06T10:43:35;2.47;;;0.75;;
42602;SDS011;28233;55.748;48.752;2023-08-06T10:45:42;1.45;;;0.90;;
42602;SDS011;28233;55.748;48.752;2023-08-06T10:47:52;2.63;;;1.02;;
42602;SDS011;28233;55.748;48.752;2023-08-06T10:50:01;2.50;;;0.98;;
42602;SDS011;28233;55.748;48.752;2023-08-06T10:52:12;1.30;;;0.60;;
42602;SDS011;28233;55.748;48.752;2023-08-06T10:54:16;1.95;;;0.90;;
42602;SDS011;28233;55.748;48.752;2023-08-06T10:56:20;2.35;;;0.60;;
42602;SDS011;28233;55.748;48.752;2023-08-06T10:58:25;6.05;;;0.90;;
42602;SDS011;28233;55.748;48.752;2023-08-06T11:00:28;1.52;;;0.70;;
42602;SDS011;28233;55.748;48.752;2023-08-06T11:02:34;2.17;;;0.65;;
42602;SDS011;28233;55.748;48.752;2023-08-06T11:04:38;4.05;;;0.73;;
42602;SDS011;28233;55.748;48.752;2023-08-06T11:06:42;1.50;;;0.75;;
42602;SDS011;28233;55.748;48.752;2023-08-06T11:08:54;2.70;;;0.60;;
42602;SDS011;28233;55.748;48.752;2023-08-06T11:11:07;2.08;;;0.75;;
42602;SDS011;28233;55.748;48.752;2023-08-06T11:13:11;1.77;;;0.80;;
42602;SDS011;28233;55.748;48.752;2023-08-06T11:15:14;2.88;;;1.42;;
42602;SDS011;28233;55.748;48.752;2023-08-06T11:17:16;3.22;;;0.98;;
42602;SDS011;28233;55.748;48.752;2023-08-06T11:19:19;3.13;;;0.80;;
42602;SDS011;28233;55.748;48.752;2023-08-06T11:21:22;1.75;;;0.60;;
42602;SDS011;28233;55.748;48.752;2023-08-06T11:23:27;4.85;;;0.70;;
42602;SDS011;28233;55.748;48.752;2023-08-06T11:25:36;3.20;;;0.90;;
42602;SDS011;28233;55.748;48.752;2023-08-06T11:27:40;1.50;;;0.77;;
42602;SDS011;28233;55.748;48.752;2023-08-06T11:29:45;2.10;;;0.80;;
42602;SDS011;28233;55.748;48.752;2023-08-06T11:31:47;0.73;;;0.50;;
42602;SDS011;28233;55.748;48.752;2023-08-06T11:33:50;3.20;;;1.10;;
42602;SDS011;28233;55.748;48.752;2023-08-06T11:35:54;1.70;;;0.85;;
42602;SDS011;28233;55.748;48.752;2023-08-06T11:37:59;1.88;;;0.88;;
42602;SDS011;28233;55.748;48.752;2023-08-06T11:40:05;3.95;;;1.20;;
42602;SDS011;28233;55.748;48.752;2023-08-06T11:42:10;1.17;;;0.68;;
42602;SDS011;28233;55.748;48.752;2023-08-06T11:44:14;1.23;;;0.60;;
42602;SDS011;28233;55.748;48.752;2023-08-06T11:46:19;1.65;;;0.70;;
42602;SDS011;28233;55.748;48.752;2023-08-06T11:48:21;3.53;;;0.82;;
42602;SDS011;28233;55.748;48.752;2023-08-06T11:50:25;1.65;;;0.70;;
42602;SDS011;28233;55.748;48.752;2023-08-06T11:52:28;1.42;;;0.60;;
42602;SDS011;28233;55.748;48.752;2023-08-06T11:54:31;2.35;;;1.00;;
42602;SDS011;28233;55.748;48.752;2023-08-06T11:56:39;1.05;;;0.60;;
42602;SDS011;28233;55.748;48.752;2023-08-06T11:58:42;1.92;;;0.80;;
42602;SDS011;28233;55.748;48.752;2023-08-06T12:00:45;1.85;;;0.40;;
42602;SDS011;28233;55.748;48.752;2023-08-06T12:02:48;0.95;;;0.50;;
42602;SDS011;28233;55.748;48.752;2023-08-06T12:07:15;1.35;;;0.70;;
42602;SDS011;28233;55.748;48.752;2023-08-06T12:09:18;1.42;;;0.90;;
42602;SDS011;28233;55.748;48.752;2023-08-06T12:11:21;4.60;;;0.90;;
42602;SDS011;28233;55.748;48.752;2023-08-06T12:13:25;1.38;;;0.65;;
42602;SDS011;28233;55.748;48.752;2023-08-06T12:15:28;3.67;;;1.08;;
42602;SDS011;28233;55.748;48.752;2023-08-06T12:17:34;2.65;;;0.75;;
42602;SDS011;28233;55.748;48.752;2023-08-06T12:19:37;7.32;;;0.98;;
42602;SDS011;28233;55.748;48.752;2023-08-06T12:21:40;2.72;;;0.80;;